sensor_id;sensor_type;location;lat;lon;timestamp;temperature;humidity
43528;DHT22;52359;42.658;23.320;2023-11-25T06:51:10;5.00;99.90
43528;DHT22;52359;42.658;23.320;2023-11-25T06:53:37;4.80;99.90
43528;DHT22;52359;42.658;23.320;2023-11-25T06:56:08;4.90;99.90
43528;DHT22;52359;42.658;23.320;2023-11-25T06:58:36;4.80;99.90
43528;DHT22;52359;42.658;23.320;2023-11-25T07:01:02;4.80;99.90
43528;DHT22;52359;42.658;23.320;2023-11-25T07:03:30;4.80;99.90
43528;DHT22;52359;42.658;23.320;2023-11-25T07:05:56;5.00;99.90
43528;DHT22;52359;42.658;23.320;2023-11-25T07:08:23;5.00;99.90
43528;DHT22;52359;42.658;23.320;2023-11-25T07:10:50;5.00;99.90
43528;DHT22;52359;42.658;23.320;2023-11-25T07:13:25;5.00;99.90
43528;DHT22;52359;42.658;23.320;2023-11-25T07:15:53;4.90;99.90
43528;DHT22;52359;42.658;23.320;2023-11-25T07:18:19;4.80;99.90
43528;DHT22;52359;42.658;23.320;2023-11-25T07:20:46;4.80;99.90
43528;DHT22;52359;42.658;23.320;2023-11-25T07:23:12;4.90;99.90
43528;DHT22;52359;42.658;23.320;2023-11-25T07:25:39;4.80;99.90
43528;DHT22;52359;42.658;23.320;2023-11-25T07:35:31;4.80;99.90
43528;DHT22;52359;42.658;23.320;2023-11-25T07:37:57;4.80;99.90
43528;DHT22;52359;42.658;23.320;2023-11-25T07:42:50;4.80;99.90
43528;DHT22;52359;42.658;23.320;2023-11-25T07:45:16;4.80;99.90
43528;DHT22;52359;42.658;23.320;2023-11-25T07:47:42;4.90;99.90
43528;DHT22;52359;42.658;23.320;2023-11-25T07:50:12;4.90;99.90
43528;DHT22;52359;42.658;23.320;2023-11-25T07:52:39;4.80;99.90
43528;DHT22;52359;42.658;23.320;2023-11-25T07:55:06;4.80;99.90
43528;DHT22;52359;42.658;23.320;2023-11-25T07:57:32;4.70;99.90
43528;DHT22;52359;42.658;23.320;2023-11-25T07:59:58;4.70;99.90
43528;DHT22;52359;42.658;23.320;2023-11-25T08:02:24;4.60;99.90
43528;DHT22;52359;42.658;23.320;2023-11-25T08:04:50;4.70;99.90
43528;DHT22;52359;42.658;23.320;2023-11-25T08:07:17;4.60;99.90
43528;DHT22;52359;42.658;23.320;2023-11-25T08:17:03;4.40;99.90
43528;DHT22;52359;42.658;23.320;2023-11-25T08:19:28;4.40;99.90
43528;DHT22;52359;42.658;23.320;2023-11-25T08:26:46;4.20;99.90
43528;DHT22;52359;42.658;23.320;2023-11-25T08:29:12;4.30;99.90
43528;DHT22;52359;42.658;23.320;2023-11-25T08:41:42;4.10;99.90
43528;DHT22;52359;42.658;23.320;2023-11-25T08:44:11;4.30;99.90
43528;DHT22;52359;42.658;23.320;2023-11-25T09:40:31;4.50;99.90
43528;DHT22;52359;42.658;23.320;2023-11-25T09:42:57;4.50;99.90
43528;DHT22;52359;42.658;23.320;2023-11-25T09:45:23;4.40;99.90
43528;DHT22;52359;42.658;23.320;2023-11-25T09:47:54;4.20;99.90
43528;DHT22;52359;42.658;23.320;2023-11-25T09:50:20;4.40;99.90
43528;DHT22;52359;42.658;23.320;2023-11-25T09:52:51;4.40;99.90
43528;DHT22;52359;42.658;23.320;2023-11-25T09:55:18;4.40;99.90
43528;DHT22;52359;42.658;23.320;2023-11-25T09:57:49;4.30;99.90
43528;DHT22;52359;42.658;23.320;2023-11-25T10:00:16;4.30;99.90
43528;DHT22;52359;42.658;23.320;2023-11-25T10:02:44;4.20;99.90
43528;DHT22;52359;42.658;23.320;2023-11-25T10:05:10;4.40;99.90
43528;DHT22;52359;42.658;23.320;2023-11-25T10:07:37;4.40;99.90
43528;DHT22;52359;42.658;23.320;2023-11-25T10:10:04;4.30;99.90
43528;DHT22;52359;42.658;23.320;2023-11-25T10:12:30;4.20;99.90
43528;DHT22;52359;42.658;23.320;2023-11-25T10:14:56;4.30;99.90
43528;DHT22;52359;42.658;23.320;2023-11-25T10:17:24;4.30;99.90
43528;DHT22;52359;42.658;23.320;2023-11-25T10:20:06;4.30;99.90
43528;DHT22;52359;42.658;23.320;2023-11-25T10:22:46;4.40;99.90
43528;DHT22;52359;42.658;23.320;2023-11-25T10:25:12;4.30;99.90
43528;DHT22;52359;42.658;23.320;2023-11-25T10:27:38;4.20;99.90
43528;DHT22;52359;42.658;23.320;2023-11-25T10:30:07;4.40;99.90
43528;DHT22;52359;42.658;23.320;2023-11-25T10:32:34;4.30;99.90
43528;DHT22;52359;42.658;23.320;2023-11-25T10:35:00;4.30;99.90
43528;DHT22;52359;42.658;23.320;2023-11-25T10:37:26;4.50;99.90
43528;DHT22;52359;42.658;23.320;2023-11-25T10:39:52;4.50;99.90
43528;DHT22;52359;42.658;23.320;2023-11-25T10:42:18;4.40;99.90
43528;DHT22;52359;42.658;23.320;2023-11-25T10:44:46;4.50;99.90
43528;DHT22;52359;42.658;23.320;2023-11-25T10:47:32;4.40;99.90
43528;DHT22;52359;42.658;23.320;2023-11-25T10:49:59;4.50;99.90
43528;DHT22;52359;42.658;23.320;2023-11-25T10:52:32;4.40;99.90
43528;DHT22;52359;42.658;23.320;2023-11-25T10:54:58;4.50;99.90
43528;DHT22;52359;42.658;23.320;2023-11-25T10:57:26;4.50;99.90
43528;DHT22;52359;42.658;23.320;2023-11-25T10:59:58;4.50;99.90
43528;DHT22;52359;42.658;23.320;2023-11-25T11:02:29;4.50;99.90
43528;DHT22;52359;42.658;23.320;2023-11-25T11:05:02;4.50;99.90
43528;DHT22;52359;42.658;23.320;2023-11-25T11:07:37;4.50;99.90
43528;DHT22;52359;42.658;23.320;2023-11-25T11:10:05;4.60;99.90
43528;DHT22;52359;42.658;23.320;2023-11-25T11:12:43;4.50;99.90
43528;DHT22;52359;42.658;23.320;2023-11-25T11:15:15;4.50;99.90
43528;DHT22;52359;42.658;23.320;2023-11-25T11:20:21;4.60;99.90
43528;DHT22;52359;42.658;23.320;2023-11-25T11:22:50;4.60;99.90
43528;DHT22;52359;42.658;23.320;2023-11-25T11:25:20;4.50;99.90
43528;DHT22;52359;42.658;23.320;2023-11-25T11:27:59;4.50;99.90
43528;DHT22;52359;42.658;23.320;2023-11-25T11:33:19;4.70;99.90
43528;DHT22;52359;42.658;23.320;2023-11-25T11:35:46;4.70;99.90
43528;DHT22;52359;42.658;23.320;2023-11-25T11:38:27;4.70;99.90
43528;DHT22;52359;42.658;23.320;2023-11-25T11:40:57;4.70;99.90
43528;DHT22;52359;42.658;23.320;2023-11-25T11:43:23;4.80;99.90
43528;DHT22;52359;42.658;23.320;2023-11-25T11:45:49;4.80;99.90
43528;DHT22;52359;42.658;23.320;2023-11-25T11:48:15;4.70;99.90
43528;DHT22;52359;42.658;23.320;2023-11-25T11:50:43;4.70;99.90
43528;DHT22;52359;42.658;23.320;2023-11-25T11:55:50;4.70;99.90
43528;DHT22;52359;42.658;23.320;2023-11-25T11:58:21;4.50;99.90
43528;DHT22;52359;42.658;23.320;2023-11-25T12:37:50;4.80;99.90
43528;DHT22;52359;42.658;23.320;2023-11-25T12:40:23;4.50;99.90
43528;DHT22;52359;42.658;23.320;2023-11-25T12:42:53;4.40;99.90
43528;DHT22;52359;42.658;23.320;2023-11-25T12:45:41;4.30;99.90
43528;DHT22;52359;42.658;23.320;2023-11-25T12:48:11;4.20;99.90
43528;DHT22;52359;42.658;23.320;2023-11-25T12:51:03;4.30;99.90
43528;DHT22;52359;42.658;23.320;2023-11-25T12:54:05;4.30;99.90
43528;DHT22;52359;42.658;23.320;2023-11-25T12:56:34;4.30;99.90
43528;DHT22;52359;42.658;23.320;2023-11-25T13:01:29;4.10;99.90
43528;DHT22;52359;42.658;23.320;2023-11-25T13:04:04;4.10;99.90
43528;DHT22;52359;42.658;23.320;2023-11-25T13:06:50;4.20;99.90
43528;DHT22;52359;42.658;23.320;2023-11-25T13:09:16;4.20;99.90
43528;DHT22;52359;42.658;23.320;2023-11-25T13:11:46;4.10;99.90
43528;DHT22;52359;42.658;23.320;2023-11-25T13:14:12;4.10;99.90
43528;DHT22;52359;42.658;23.320;2023-11-25T13:28:56;4.10;99.90
43528;DHT22;52359;42.658;23.320;2023-11-25T13:36:15;3.90;99.90
43528;DHT22;52359;42.658;23.320;2023-11-25T13:38:41;4.30;99.90
43528;DHT22;52359;42.658;23.320;2023-11-25T13:41:06;4.00;99.90
43528;DHT22;52359;42.658;23.320;2023-11-25T13:43:33;3.90;99.90
43528;DHT22;52359;42.658;23.320;2023-11-25T13:45:59;4.00;99.90
43528;DHT22;52359;42.658;23.320;2023-11-25T13:48:26;3.90;99.90
43528;DHT22;52359;42.658;23.320;2023-11-25T13:50:52;3.90;99.90
43528;DHT22;52359;42.658;23.320;2023-11-25T13:53:18;4.10;99.90
43528;DHT22;52359;42.658;23.320;2023-11-25T13:55:45;4.00;99.90
43528;DHT22;52359;42.658;23.320;2023-11-25T13:58:13;4.00;99.90
43528;DHT22;52359;42.658;23.320;2023-11-25T14:00:41;4.00;99.90
43528;DHT22;52359;42.658;23.320;2023-11-25T14:03:07;4.00;99.90
43528;DHT22;52359;42.658;23.320;2023-11-25T14:08:08;3.90;99.90
43528;DHT22;52359;42.658;23.320;2023-11-25T14:10:37;4.00;99.90
43528;DHT22;52359;42.658;23.320;2023-11-25T14:13:08;4.10;99.90
43528;DHT22;52359;42.658;23.320;2023-11-25T14:15:34;4.00;99.90
43528;DHT22;52359;42.658;23.320;2023-11-25T14:18:01;4.00;99.90
43528;DHT22;52359;42.658;23.320;2023-11-25T14:20:27;3.90;99.90
43528;DHT22;52359;42.658;23.320;2023-11-25T14:22:53;3.90;99.90
43528;DHT22;52359;42.658;23.320;2023-11-25T14:25:21;3.90;99.90
43528;DHT22;52359;42.658;23.320;2023-11-25T14:27:48;4.00;99.90
43528;DHT22;52359;42.658;23.320;2023-11-25T14:32:44;4.00;99.90
43528;DHT22;52359;42.658;23.320;2023-11-25T14:35:14;4.00;99.90
43528;DHT22;52359;42.658;23.320;2023-11-25T14:37:41;4.10;99.90
43528;DHT22;52359;42.658;23.320;2023-11-25T14:47:37;4.00;99.90
43528;DHT22;52359;42.658;23.320;2023-11-25T14:50:03;4.10;99.90
43528;DHT22;52359;42.658;23.320;2023-11-25T15:14:26;3.80;99.90
43528;DHT22;52359;42.658;23.320;2023-11-25T15:16:52;3.80;99.90
43528;DHT22;52359;42.658;23.320;2023-11-25T15:19:19;3.70;99.90
43528;DHT22;52359;42.658;23.320;2023-11-25T15:21:45;3.70;99.90
43528;DHT22;52359;42.658;23.320;2023-11-25T15:24:11;3.80;99.90
43528;DHT22;52359;42.658;23.320;2023-11-25T15:26:41;3.90;99.90
43528;DHT22;52359;42.658;23.320;2023-11-25T15:29:12;3.70;99.90
43528;DHT22;52359;42.658;23.320;2023-11-25T15:31:38;3.90;99.90
43528;DHT22;52359;42.658;23.320;2023-11-25T15:34:07;3.90;99.90
43528;DHT22;52359;42.658;23.320;2023-11-25T15:36:34;3.70;99.90
43528;DHT22;52359;42.658;23.320;2023-11-25T15:41:31;3.70;99.90
43528;DHT22;52359;42.658;23.320;2023-11-25T15:53:41;4.10;99.90
43528;DHT22;52359;42.658;23.320;2023-11-25T15:56:07;4.00;99.90
43528;DHT22;52359;42.658;23.320;2023-11-25T15:58:33;3.90;99.90
43528;DHT22;52359;42.658;23.320;2023-11-25T16:00:59;3.60;99.90
43528;DHT22;52359;42.658;23.320;2023-11-25T16:03:25;3.50;99.90
43528;DHT22;52359;42.658;23.320;2023-11-25T16:05:51;3.60;99.90
43528;DHT22;52359;42.658;23.320;2023-11-25T16:08:19;3.70;99.90
43528;DHT22;52359;42.658;23.320;2023-11-25T16:10:45;3.60;99.90
43528;DHT22;52359;42.658;23.320;2023-11-25T16:13:11;3.60;99.90
43528;DHT22;52359;42.658;23.320;2023-11-25T16:15:37;3.60;99.90
43528;DHT22;52359;42.658;23.320;2023-11-25T16:18:05;3.60;99.90
43528;DHT22;52359;42.658;23.320;2023-11-25T16:20:31;3.50;99.90
43528;DHT22;52359;42.658;23.320;2023-11-25T16:22:57;3.60;99.90
43528;DHT22;52359;42.658;23.320;2023-11-25T16:25:22;3.50;99.90
43528;DHT22;52359;42.658;23.320;2023-11-25T16:27:52;3.60;99.90
43528;DHT22;52359;42.658;23.320;2023-11-25T16:30:18;3.50;99.90
43528;DHT22;52359;42.658;23.320;2023-11-25T16:32:48;3.50;99.90
43528;DHT22;52359;42.658;23.320;2023-11-25T16:35:14;3.60;99.90
43528;DHT22;52359;42.658;23.320;2023-11-25T16:37:44;3.40;99.90
43528;DHT22;52359;42.658;23.320;2023-11-25T16:40:11;3.40;99.90
43528;DHT22;52359;42.658;23.320;2023-11-25T16:42:37;3.50;99.90
43528;DHT22;52359;42.658;23.320;2023-11-25T16:45:04;3.40;99.90
43528;DHT22;52359;42.658;23.320;2023-11-25T16:47:32;3.40;99.90
43528;DHT22;52359;42.658;23.320;2023-11-25T16:49:59;3.40;99.90
43528;DHT22;52359;42.658;23.320;2023-11-25T16:52:25;3.30;99.90
43528;DHT22;52359;42.658;23.320;2023-11-25T16:54:50;3.50;99.90
43528;DHT22;52359;42.658;23.320;2023-11-25T16:57:17;3.50;99.90
43528;DHT22;52359;42.658;23.320;2023-11-25T16:59:42;3.40;99.90
43528;DHT22;52359;42.658;23.320;2023-11-25T17:02:08;3.50;99.90
43528;DHT22;52359;42.658;23.320;2023-11-25T17:04:34;3.50;99.90
43528;DHT22;52359;42.658;23.320;2023-11-25T17:07:00;3.50;99.90
43528;DHT22;52359;42.658;23.320;2023-11-25T17:09:31;3.60;99.90
43528;DHT22;52359;42.658;23.320;2023-11-25T17:11:58;3.60;99.90
43528;DHT22;52359;42.658;23.320;2023-11-25T17:14:24;3.50;99.90
43528;DHT22;52359;42.658;23.320;2023-11-25T17:16:50;3.50;99.90
43528;DHT22;52359;42.658;23.320;2023-11-25T17:19:16;3.40;99.90
43528;DHT22;52359;42.658;23.320;2023-11-25T17:21:42;3.50;99.90
43528;DHT22;52359;42.658;23.320;2023-11-25T17:24:08;3.40;99.90
43528;DHT22;52359;42.658;23.320;2023-11-25T17:26:34;3.60;99.90
43528;DHT22;52359;42.658;23.320;2023-11-25T17:28:59;3.30;99.90
43528;DHT22;52359;42.658;23.320;2023-11-25T17:31:25;3.30;99.90
43528;DHT22;52359;42.658;23.320;2023-11-25T17:33:52;3.50;99.90
43528;DHT22;52359;42.658;23.320;2023-11-25T17:38:44;3.30;99.90
43528;DHT22;52359;42.658;23.320;2023-11-25T17:43:37;3.40;99.90
43528;DHT22;52359;42.658;23.320;2023-11-25T17:46:03;3.30;99.90
43528;DHT22;52359;42.658;23.320;2023-11-25T17:48:28;3.40;99.90
43528;DHT22;52359;42.658;23.320;2023-11-25T17:53:20;3.50;99.90
43528;DHT22;52359;42.658;23.320;2023-11-25T18:25:06;3.70;99.90
43528;DHT22;52359;42.658;23.320;2023-11-25T18:27:34;3.60;99.90
43528;DHT22;52359;42.658;23.320;2023-11-25T18:30:00;3.40;99.90
